sensor_id;sensor_type;location;lat;lon;timestamp;temperature;humidity
68251;DHT22;55066;51.560;4.642;2023-05-10T00:01:07;11.60;99.99
68251;DHT22;55066;51.560;4.642;2023-05-10T00:03:32;11.74;99.99
68251;DHT22;55066;51.560;4.642;2023-05-10T00:05:59;11.85;99.99
68251;DHT22;55066;51.560;4.642;2023-05-10T00:08:25;11.95;99.99
68251;DHT22;55066;51.560;4.642;2023-05-10T00:10:51;11.98;99.99
68251;DHT22;55066;51.560;4.642;2023-05-10T00:13:17;12.07;99.99
68251;DHT22;55066;51.560;4.642;2023-05-10T00:15:42;12.20;99.99
68251;DHT22;55066;51.560;4.642;2023-05-10T00:18:08;12.27;99.99
68251;DHT22;55066;51.560;4.642;2023-05-10T00:20:33;12.26;99.99
68251;DHT22;55066;51.560;4.642;2023-05-10T00:22:58;12.29;99.99
68251;DHT22;55066;51.560;4.642;2023-05-10T00:25:25;12.23;99.99
68251;DHT22;55066;51.560;4.642;2023-05-10T00:27:51;12.32;99.99
68251;DHT22;55066;51.560;4.642;2023-05-10T00:30:16;12.32;99.99
68251;DHT22;55066;51.560;4.642;2023-05-10T00:32:41;12.22;99.99
68251;DHT22;55066;51.560;4.642;2023-05-10T00:35:08;11.93;99.99
68251;DHT22;55066;51.560;4.642;2023-05-10T00:37:34;12.02;99.99
68251;DHT22;55066;51.560;4.642;2023-05-10T00:40:01;12.12;99.99
68251;DHT22;55066;51.560;4.642;2023-05-10T00:42:26;12.37;99.99
68251;DHT22;55066;51.560;4.642;2023-05-10T00:44:57;12.36;99.99
68251;DHT22;55066;51.560;4.642;2023-05-10T00:47:23;12.45;99.99
68251;DHT22;55066;51.560;4.642;2023-05-10T00:49:49;12.41;99.99
68251;DHT22;55066;51.560;4.642;2023-05-10T00:52:15;12.44;99.99
68251;DHT22;55066;51.560;4.642;2023-05-10T00:54:41;12.38;99.99
68251;DHT22;55066;51.560;4.642;2023-05-10T00:57:09;12.40;99.99
68251;DHT22;55066;51.560;4.642;2023-05-10T00:59:35;12.55;99.99
68251;DHT22;55066;51.560;4.642;2023-05-10T01:02:01;12.47;99.99
68251;DHT22;55066;51.560;4.642;2023-05-10T01:04:28;12.48;99.99
68251;DHT22;55066;51.560;4.642;2023-05-10T01:06:58;12.51;99.99
68251;DHT22;55066;51.560;4.642;2023-05-10T01:09:23;12.51;99.99
68251;DHT22;55066;51.560;4.642;2023-05-10T01:11:52;12.65;99.99
68251;DHT22;55066;51.560;4.642;2023-05-10T01:14:20;12.65;99.99
68251;DHT22;55066;51.560;4.642;2023-05-10T01:16:50;12.55;99.99
68251;DHT22;55066;51.560;4.642;2023-05-10T01:19:22;12.67;99.99
68251;DHT22;55066;51.560;4.642;2023-05-10T01:25:25;12.60;99.99
68251;DHT22;55066;51.560;4.642;2023-05-10T01:28:33;12.48;99.99
68251;DHT22;55066;51.560;4.642;2023-05-10T01:31:26;12.60;99.99
68251;DHT22;55066;51.560;4.642;2023-05-10T01:34:13;12.60;99.99
68251;DHT22;55066;51.560;4.642;2023-05-10T01:37:02;12.68;99.99
68251;DHT22;55066;51.560;4.642;2023-05-10T01:40:08;12.65;99.99
68251;DHT22;55066;51.560;4.642;2023-05-10T01:42:43;12.57;99.99
68251;DHT22;55066;51.560;4.642;2023-05-10T01:45:27;12.60;99.99
68251;DHT22;55066;51.560;4.642;2023-05-10T01:48:08;12.65;99.99
68251;DHT22;55066;51.560;4.642;2023-05-10T01:50:36;12.67;99.99
68251;DHT22;55066;51.560;4.642;2023-05-10T01:53:07;12.68;99.99
68251;DHT22;55066;51.560;4.642;2023-05-10T01:55:39;12.72;99.99
68251;DHT22;55066;51.560;4.642;2023-05-10T01:58:10;12.69;99.99
68251;DHT22;55066;51.560;4.642;2023-05-10T02:00:40;12.48;99.99
68251;DHT22;55066;51.560;4.642;2023-05-10T02:03:11;12.54;99.99
68251;DHT22;55066;51.560;4.642;2023-05-10T02:05:41;12.54;99.99
68251;DHT22;55066;51.560;4.642;2023-05-10T02:08:07;12.53;99.99
68251;DHT22;55066;51.560;4.642;2023-05-10T02:10:36;12.50;99.99
68251;DHT22;55066;51.560;4.642;2023-05-10T02:13:03;12.53;99.99
68251;DHT22;55066;51.560;4.642;2023-05-10T02:15:32;12.48;99.99
68251;DHT22;55066;51.560;4.642;2023-05-10T02:17:58;12.50;99.99
68251;DHT22;55066;51.560;4.642;2023-05-10T02:20:26;12.43;99.99
68251;DHT22;55066;51.560;4.642;2023-05-10T02:22:55;12.54;99.99
68251;DHT22;55066;51.560;4.642;2023-05-10T02:25:24;12.50;99.99
68251;DHT22;55066;51.560;4.642;2023-05-10T02:27:56;12.54;99.99
68251;DHT22;55066;51.560;4.642;2023-05-10T02:30:24;12.58;99.99
68251;DHT22;55066;51.560;4.642;2023-05-10T02:32:51;12.50;99.99
68251;DHT22;55066;51.560;4.642;2023-05-10T02:35:18;12.58;99.99
68251;DHT22;55066;51.560;4.642;2023-05-10T02:37:45;12.41;99.99
68251;DHT22;55066;51.560;4.642;2023-05-10T02:40:12;12.48;99.99
68251;DHT22;55066;51.560;4.642;2023-05-10T02:42:41;12.44;99.99
68251;DHT22;55066;51.560;4.642;2023-05-10T02:45:11;12.41;99.99
68251;DHT22;55066;51.560;4.642;2023-05-10T02:47:37;12.40;99.99
68251;DHT22;55066;51.560;4.642;2023-05-10T02:50:03;12.43;99.99
68251;DHT22;55066;51.560;4.642;2023-05-10T02:52:46;12.51;99.99
68251;DHT22;55066;51.560;4.642;2023-05-10T02:55:14;12.40;99.99
68251;DHT22;55066;51.560;4.642;2023-05-10T02:57:46;12.57;99.99
68251;DHT22;55066;51.560;4.642;2023-05-10T03:00:14;12.48;99.99
68251;DHT22;55066;51.560;4.642;2023-05-10T03:02:39;12.33;99.99
68251;DHT22;55066;51.560;4.642;2023-05-10T03:05:05;12.40;99.99
68251;DHT22;55066;51.560;4.642;2023-05-10T03:07:30;12.41;99.99
68251;DHT22;55066;51.560;4.642;2023-05-10T03:09:56;12.36;99.99
68251;DHT22;55066;51.560;4.642;2023-05-10T03:12:47;12.41;99.99
68251;DHT22;55066;51.560;4.642;2023-05-10T03:15:37;12.33;99.99
68251;DHT22;55066;51.560;4.642;2023-05-10T03:18:10;12.22;99.99
68251;DHT22;55066;51.560;4.642;2023-05-10T03:20:41;12.32;99.99
68251;DHT22;55066;51.560;4.642;2023-05-10T03:23:13;12.27;99.99
68251;DHT22;55066;51.560;4.642;2023-05-10T03:25:46;12.12;99.99
68251;DHT22;55066;51.560;4.642;2023-05-10T03:28:14;12.10;99.99
68251;DHT22;55066;51.560;4.642;2023-05-10T03:30:42;12.10;99.99
68251;DHT22;55066;51.560;4.642;2023-05-10T03:33:10;12.19;99.99
68251;DHT22;55066;51.560;4.642;2023-05-10T03:35:40;12.16;99.99
68251;DHT22;55066;51.560;4.642;2023-05-10T03:38:06;12.13;99.99
68251;DHT22;55066;51.560;4.642;2023-05-10T03:40:31;12.34;99.99
68251;DHT22;55066;51.560;4.642;2023-05-10T03:42:58;12.17;99.99
68251;DHT22;55066;51.560;4.642;2023-05-10T03:45:24;12.36;99.99
68251;DHT22;55066;51.560;4.642;2023-05-10T03:47:49;12.47;99.99
68251;DHT22;55066;51.560;4.642;2023-05-10T03:50:15;12.32;99.99
68251;DHT22;55066;51.560;4.642;2023-05-10T03:52:41;12.29;99.99
68251;DHT22;55066;51.560;4.642;2023-05-10T03:55:09;12.17;99.99
68251;DHT22;55066;51.560;4.642;2023-05-10T03:57:38;12.36;99.99
68251;DHT22;55066;51.560;4.642;2023-05-10T04:00:06;12.30;99.99
68251;DHT22;55066;51.560;4.642;2023-05-10T04:02:39;12.20;99.99
68251;DHT22;55066;51.560;4.642;2023-05-10T04:05:05;12.09;99.99
68251;DHT22;55066;51.560;4.642;2023-05-10T04:07:32;12.22;99.99
68251;DHT22;55066;51.560;4.642;2023-05-10T04:09:59;12.19;99.99
68251;DHT22;55066;51.560;4.642;2023-05-10T04:12:24;12.23;99.99
68251;DHT22;55066;51.560;4.642;2023-05-10T04:14:50;12.29;99.75
68251;DHT22;55066;51.560;4.642;2023-05-10T04:17:16;12.36;99.27
68251;DHT22;55066;51.560;4.642;2023-05-10T04:19:43;12.37;99.99
68251;DHT22;55066;51.560;4.642;2023-05-10T04:22:08;12.32;99.99
68251;DHT22;55066;51.560;4.642;2023-05-10T04:24:37;12.41;98.87
68251;DHT22;55066;51.560;4.642;2023-05-10T04:27:02;12.30;99.99
68251;DHT22;55066;51.560;4.642;2023-05-10T04:29:27;12.34;99.99
68251;DHT22;55066;51.560;4.642;2023-05-10T04:31:53;12.33;99.99
68251;DHT22;55066;51.560;4.642;2023-05-10T04:34:21;12.43;99.99
68251;DHT22;55066;51.560;4.642;2023-05-10T04:36:46;12.33;99.99
68251;DHT22;55066;51.560;4.642;2023-05-10T04:39:11;12.27;99.79
68251;DHT22;55066;51.560;4.642;2023-05-10T04:41:37;12.47;99.99
68251;DHT22;55066;51.560;4.642;2023-05-10T04:44:03;12.51;99.99
68251;DHT22;55066;51.560;4.642;2023-05-10T04:46:28;12.40;99.99
68251;DHT22;55066;51.560;4.642;2023-05-10T04:48:54;12.55;99.19
68251;DHT22;55066;51.560;4.642;2023-05-10T04:51:19;12.57;99.99
68251;DHT22;55066;51.560;4.642;2023-05-10T04:53:45;12.53;99.99
68251;DHT22;55066;51.560;4.642;2023-05-10T04:56:11;12.55;99.99
68251;DHT22;55066;51.560;4.642;2023-05-10T04:58:36;12.47;99.99
68251;DHT22;55066;51.560;4.642;2023-05-10T05:01:06;12.68;99.99
68251;DHT22;55066;51.560;4.642;2023-05-10T05:03:32;12.64;99.99
68251;DHT22;55066;51.560;4.642;2023-05-10T05:05:57;12.68;99.77
68251;DHT22;55066;51.560;4.642;2023-05-10T05:08:23;12.61;99.99
68251;DHT22;55066;51.560;4.642;2023-05-10T05:10:49;12.57;99.99
68251;DHT22;55066;51.560;4.642;2023-05-10T05:13:15;12.34;99.74
68251;DHT22;55066;51.560;4.642;2023-05-10T05:15:42;12.40;99.99
68251;DHT22;55066;51.560;4.642;2023-05-10T05:18:10;12.43;99.99
68251;DHT22;55066;51.560;4.642;2023-05-10T05:20:35;12.55;99.99
68251;DHT22;55066;51.560;4.642;2023-05-10T05:23:01;12.44;99.99
68251;DHT22;55066;51.560;4.642;2023-05-10T05:25:28;12.48;99.99
68251;DHT22;55066;51.560;4.642;2023-05-10T05:27:54;12.51;99.99
68251;DHT22;55066;51.560;4.642;2023-05-10T05:30:20;12.54;99.99
68251;DHT22;55066;51.560;4.642;2023-05-10T05:32:45;12.65;99.99
68251;DHT22;55066;51.560;4.642;2023-05-10T05:35:13;12.72;97.70
68251;DHT22;55066;51.560;4.642;2023-05-10T05:37:39;12.77;99.99
68251;DHT22;55066;51.560;4.642;2023-05-10T05:40:05;12.68;99.99
68251;DHT22;55066;51.560;4.642;2023-05-10T05:42:31;12.67;99.83
68251;DHT22;55066;51.560;4.642;2023-05-10T05:44:56;12.82;98.48
68251;DHT22;55066;51.560;4.642;2023-05-10T05:47:23;12.67;99.99
68251;DHT22;55066;51.560;4.642;2023-05-10T05:49:52;12.87;99.12
68251;DHT22;55066;51.560;4.642;2023-05-10T05:52:17;12.75;99.99
68251;DHT22;55066;51.560;4.642;2023-05-10T05:54:43;12.89;99.99
68251;DHT22;55066;51.560;4.642;2023-05-10T05:57:10;12.93;99.99
68251;DHT22;55066;51.560;4.642;2023-05-10T05:59:37;13.12;99.05
68251;DHT22;55066;51.560;4.642;2023-05-10T06:02:08;13.10;99.99
68251;DHT22;55066;51.560;4.642;2023-05-10T06:04:35;13.10;99.99
68251;DHT22;55066;51.560;4.642;2023-05-10T06:07:00;13.36;95.67
68251;DHT22;55066;51.560;4.642;2023-05-10T06:09:26;13.10;99.99
68251;DHT22;55066;51.560;4.642;2023-05-10T06:11:52;12.98;99.99
68251;DHT22;55066;51.560;4.642;2023-05-10T06:14:20;13.29;99.99
68251;DHT22;55066;51.560;4.642;2023-05-10T06:16:46;13.35;99.99
68251;DHT22;55066;51.560;4.642;2023-05-10T06:19:12;13.32;99.99
68251;DHT22;55066;51.560;4.642;2023-05-10T06:21:39;13.16;99.99
68251;DHT22;55066;51.560;4.642;2023-05-10T06:24:05;13.13;99.70
68251;DHT22;55066;51.560;4.642;2023-05-10T06:26:33;13.09;99.99
68251;DHT22;55066;51.560;4.642;2023-05-10T06:28:59;13.15;98.66
68251;DHT22;55066;51.560;4.642;2023-05-10T06:31:24;13.15;99.49
68251;DHT22;55066;51.560;4.642;2023-05-10T06:33:49;13.26;99.00
68251;DHT22;55066;51.560;4.642;2023-05-10T06:36:20;13.29;98.87
68251;DHT22;55066;51.560;4.642;2023-05-10T06:38:51;13.18;99.99
68251;DHT22;55066;51.560;4.642;2023-05-10T06:41:16;13.18;98.34
68251;DHT22;55066;51.560;4.642;2023-05-10T06:43:42;13.24;99.99
68251;DHT22;55066;51.560;4.642;2023-05-10T06:46:08;13.42;99.99
68251;DHT22;55066;51.560;4.642;2023-05-10T06:48:34;13.57;99.48
68251;DHT22;55066;51.560;4.642;2023-05-10T06:50:59;13.63;99.99
68251;DHT22;55066;51.560;4.642;2023-05-10T06:53:25;13.79;97.68
68251;DHT22;55066;51.560;4.642;2023-05-10T06:55:52;13.64;99.99
68251;DHT22;55066;51.560;4.642;2023-05-10T06:58:18;13.75;99.99
68251;DHT22;55066;51.560;4.642;2023-05-10T07:00:44;14.08;96.81
68251;DHT22;55066;51.560;4.642;2023-05-10T07:03:11;14.50;96.57
68251;DHT22;55066;51.560;4.642;2023-05-10T07:05:36;14.37;99.73
68251;DHT22;55066;51.560;4.642;2023-05-10T07:08:02;14.73;99.99
68251;DHT22;55066;51.560;4.642;2023-05-10T07:10:27;14.91;99.11
68251;DHT22;55066;51.560;4.642;2023-05-10T07:12:53;14.81;99.99
68251;DHT22;55066;51.560;4.642;2023-05-10T07:15:18;14.66;99.99
68251;DHT22;55066;51.560;4.642;2023-05-10T07:17:44;14.84;97.87
68251;DHT22;55066;51.560;4.642;2023-05-10T07:20:14;15.11;92.91
68251;DHT22;55066;51.560;4.642;2023-05-10T07:22:39;14.99;97.25
68251;DHT22;55066;51.560;4.642;2023-05-10T07:25:05;15.06;99.99
68251;DHT22;55066;51.560;4.642;2023-05-10T07:27:31;15.16;99.99
68251;DHT22;55066;51.560;4.642;2023-05-10T07:29:57;15.44;97.87
68251;DHT22;55066;51.560;4.642;2023-05-10T07:32:27;15.64;98.40
68251;DHT22;55066;51.560;4.642;2023-05-10T07:34:55;15.80;97.95
68251;DHT22;55066;51.560;4.642;2023-05-10T07:37:22;16.14;97.18
68251;DHT22;55066;51.560;4.642;2023-05-10T07:39:55;16.52;93.63
68251;DHT22;55066;51.560;4.642;2023-05-10T07:42:21;16.69;93.84
68251;DHT22;55066;51.560;4.642;2023-05-10T07:44:46;16.56;93.90
68251;DHT22;55066;51.560;4.642;2023-05-10T07:47:12;16.53;95.27
68251;DHT22;55066;51.560;4.642;2023-05-10T07:49:37;16.22;95.56
68251;DHT22;55066;51.560;4.642;2023-05-10T07:52:03;16.30;95.49
68251;DHT22;55066;51.560;4.642;2023-05-10T07:54:29;16.95;92.86
68251;DHT22;55066;51.560;4.642;2023-05-10T07:56:54;17.45;91.89
68251;DHT22;55066;51.560;4.642;2023-05-10T07:59:27;17.31;92.57
68251;DHT22;55066;51.560;4.642;2023-05-10T08:01:53;17.46;90.21
68251;DHT22;55066;51.560;4.642;2023-05-10T08:04:18;17.22;91.11
68251;DHT22;55066;51.560;4.642;2023-05-10T08:06:44;17.39;91.11
68251;DHT22;55066;51.560;4.642;2023-05-10T08:09:09;16.95;91.28
68251;DHT22;55066;51.560;4.642;2023-05-10T08:11:36;17.34;90.74
68251;DHT22;55066;51.560;4.642;2023-05-10T08:14:01;17.52;90.70
68251;DHT22;55066;51.560;4.642;2023-05-10T08:16:27;16.95;92.17
68251;DHT22;55066;51.560;4.642;2023-05-10T08:18:52;16.85;92.56
68251;DHT22;55066;51.560;4.642;2023-05-10T08:21:20;16.84;92.31
68251;DHT22;55066;51.560;4.642;2023-05-10T08:23:46;16.52;94.06
68251;DHT22;55066;51.560;4.642;2023-05-10T08:26:12;16.77;93.62
68251;DHT22;55066;51.560;4.642;2023-05-10T08:28:37;17.40;91.51
68251;DHT22;55066;51.560;4.642;2023-05-10T08:31:04;17.67;90.60
68251;DHT22;55066;51.560;4.642;2023-05-10T08:33:29;17.38;91.16
68251;DHT22;55066;51.560;4.642;2023-05-10T08:35:55;17.28;91.39
68251;DHT22;55066;51.560;4.642;2023-05-10T08:38:20;17.46;91.71
68251;DHT22;55066;51.560;4.642;2023-05-10T08:40:47;17.56;89.49
68251;DHT22;55066;51.560;4.642;2023-05-10T08:43:14;17.77;89.43
68251;DHT22;55066;51.560;4.642;2023-05-10T08:45:44;17.96;88.87
68251;DHT22;55066;51.560;4.642;2023-05-10T08:48:13;18.47;87.72
68251;DHT22;55066;51.560;4.642;2023-05-10T08:50:40;18.72;88.13
68251;DHT22;55066;51.560;4.642;2023-05-10T08:53:09;18.51;87.36
68251;DHT22;55066;51.560;4.642;2023-05-10T08:55:36;17.69;90.07
68251;DHT22;55066;51.560;4.642;2023-05-10T08:58:05;17.28;89.91
68251;DHT22;55066;51.560;4.642;2023-05-10T09:00:32;17.38;91.06
68251;DHT22;55066;51.560;4.642;2023-05-10T09:02:59;17.55;91.02
68251;DHT22;55066;51.560;4.642;2023-05-10T09:05:26;17.72;90.51
68251;DHT22;55066;51.560;4.642;2023-05-10T09:07:52;17.84;90.36
68251;DHT22;55066;51.560;4.642;2023-05-10T09:10:22;17.87;90.00
68251;DHT22;55066;51.560;4.642;2023-05-10T09:12:51;17.56;90.38
68251;DHT22;55066;51.560;4.642;2023-05-10T09:15:17;17.29;91.41
68251;DHT22;55066;51.560;4.642;2023-05-10T09:17:44;17.31;90.06
68251;DHT22;55066;51.560;4.642;2023-05-10T09:20:10;17.93;90.04
68251;DHT22;55066;51.560;4.642;2023-05-10T09:22:36;18.89;88.25
68251;DHT22;55066;51.560;4.642;2023-05-10T09:25:16;19.24;85.97
68251;DHT22;55066;51.560;4.642;2023-05-10T09:27:45;19.93;84.05
68251;DHT22;55066;51.560;4.642;2023-05-10T09:30:15;19.51;85.36
68251;DHT22;55066;51.560;4.642;2023-05-10T09:32:45;19.52;86.67
68251;DHT22;55066;51.560;4.642;2023-05-10T09:35:19;19.90;84.21
68251;DHT22;55066;51.560;4.642;2023-05-10T09:37:53;19.69;85.06
68251;DHT22;55066;51.560;4.642;2023-05-10T09:40:26;20.24;84.93
68251;DHT22;55066;51.560;4.642;2023-05-10T09:42:53;19.92;83.14
68251;DHT22;55066;51.560;4.642;2023-05-10T09:45:20;19.41;85.47
68251;DHT22;55066;51.560;4.642;2023-05-10T09:47:47;19.31;84.87
68251;DHT22;55066;51.560;4.642;2023-05-10T09:50:16;19.18;87.14
68251;DHT22;55066;51.560;4.642;2023-05-10T09:52:53;19.14;87.93
68251;DHT22;55066;51.560;4.642;2023-05-10T09:55:21;19.41;86.04
68251;DHT22;55066;51.560;4.642;2023-05-10T09:57:48;19.45;85.30
68251;DHT22;55066;51.560;4.642;2023-05-10T10:00:19;19.55;86.16
68251;DHT22;55066;51.560;4.642;2023-05-10T10:02:55;19.65;87.03
68251;DHT22;55066;51.560;4.642;2023-05-10T10:05:21;19.82;85.00
68251;DHT22;55066;51.560;4.642;2023-05-10T10:07:52;19.82;83.94
68251;DHT22;55066;51.560;4.642;2023-05-10T10:10:18;20.20;85.87
68251;DHT22;55066;51.560;4.642;2023-05-10T10:12:46;20.75;85.13
68251;DHT22;55066;51.560;4.642;2023-05-10T10:15:12;20.79;83.05
68251;DHT22;55066;51.560;4.642;2023-05-10T10:17:38;20.72;82.13
68251;DHT22;55066;51.560;4.642;2023-05-10T10:20:04;20.85;84.10
68251;DHT22;55066;51.560;4.642;2023-05-10T10:22:31;20.67;84.36
68251;DHT22;55066;51.560;4.642;2023-05-10T10:24:56;20.30;83.18
68251;DHT22;55066;51.560;4.642;2023-05-10T10:27:26;20.49;85.48
68251;DHT22;55066;51.560;4.642;2023-05-10T10:30:07;20.47;85.05
68251;DHT22;55066;51.560;4.642;2023-05-10T10:33:06;20.99;84.84
68251;DHT22;55066;51.560;4.642;2023-05-10T10:35:36;21.38;81.86
68251;DHT22;55066;51.560;4.642;2023-05-10T10:38:03;21.16;84.09
68251;DHT22;55066;51.560;4.642;2023-05-10T10:40:33;20.81;80.91
68251;DHT22;55066;51.560;4.642;2023-05-10T10:43:22;21.30;78.12
68251;DHT22;55066;51.560;4.642;2023-05-10T10:48:33;20.09;83.55
68251;DHT22;55066;51.560;4.642;2023-05-10T10:51:00;19.06;84.24
68251;DHT22;55066;51.560;4.642;2023-05-10T10:53:26;19.23;90.50
68251;DHT22;55066;51.560;4.642;2023-05-10T10:56:05;19.15;89.09
68251;DHT22;55066;51.560;4.642;2023-05-10T10:58:34;18.15;96.38
68251;DHT22;55066;51.560;4.642;2023-05-10T11:01:12;18.28;96.51
68251;DHT22;55066;51.560;4.642;2023-05-10T11:03:38;18.21;94.66
68251;DHT22;55066;51.560;4.642;2023-05-10T11:06:04;17.89;95.65
68251;DHT22;55066;51.560;4.642;2023-05-10T11:08:39;17.49;95.98
68251;DHT22;55066;51.560;4.642;2023-05-10T11:11:07;17.73;98.45
68251;DHT22;55066;51.560;4.642;2023-05-10T11:13:39;18.03;97.40
68251;DHT22;55066;51.560;4.642;2023-05-10T11:18:39;18.10;96.22
68251;DHT22;55066;51.560;4.642;2023-05-10T11:21:09;18.08;96.29
68251;DHT22;55066;51.560;4.642;2023-05-10T11:26:07;17.93;96.56
68251;DHT22;55066;51.560;4.642;2023-05-10T11:28:46;17.46;96.41
68251;DHT22;55066;51.560;4.642;2023-05-10T11:31:17;17.61;94.58
68251;DHT22;55066;51.560;4.642;2023-05-10T11:33:50;17.91;96.36
68251;DHT22;55066;51.560;4.642;2023-05-10T11:36:21;18.52;93.28
68251;DHT22;55066;51.560;4.642;2023-05-10T11:38:47;18.21;92.45
68251;DHT22;55066;51.560;4.642;2023-05-10T11:41:14;18.25;91.79
68251;DHT22;55066;51.560;4.642;2023-05-10T11:43:41;17.96;90.07
68251;DHT22;55066;51.560;4.642;2023-05-10T11:46:11;18.25;92.26
68251;DHT22;55066;51.560;4.642;2023-05-10T11:48:41;18.45;91.23
68251;DHT22;55066;51.560;4.642;2023-05-10T11:51:08;18.45;90.46
68251;DHT22;55066;51.560;4.642;2023-05-10T11:53:34;18.04;89.85
68251;DHT22;55066;51.560;4.642;2023-05-10T11:56:09;18.08;91.47
68251;DHT22;55066;51.560;4.642;2023-05-10T11:58:37;17.77;89.98
68251;DHT22;55066;51.560;4.642;2023-05-10T12:01:04;18.56;89.19
68251;DHT22;55066;51.560;4.642;2023-05-10T12:03:31;18.48;88.87
68251;DHT22;55066;51.560;4.642;2023-05-10T12:06:01;18.31;89.83
68251;DHT22;55066;51.560;4.642;2023-05-10T12:08:29;18.41;89.25
68251;DHT22;55066;51.560;4.642;2023-05-10T12:11:06;18.60;88.85
68251;DHT22;55066;51.560;4.642;2023-05-10T12:16:22;18.10;90.19
68251;DHT22;55066;51.560;4.642;2023-05-10T12:18:49;18.48;88.98
68251;DHT22;55066;51.560;4.642;2023-05-10T12:21:16;18.38;88.85
68251;DHT22;55066;51.560;4.642;2023-05-10T12:23:45;18.52;88.58
68251;DHT22;55066;51.560;4.642;2023-05-10T12:26:10;18.42;88.27
68251;DHT22;55066;51.560;4.642;2023-05-10T12:28:39;18.20;88.59
68251;DHT22;55066;51.560;4.642;2023-05-10T12:31:07;18.34;87.85
68251;DHT22;55066;51.560;4.642;2023-05-10T12:36:06;18.97;86.67
68251;DHT22;55066;51.560;4.642;2023-05-10T12:38:37;18.90;86.10
68251;DHT22;55066;51.560;4.642;2023-05-10T12:41:05;18.41;86.22
68251;DHT22;55066;51.560;4.642;2023-05-10T12:43:33;18.99;86.32
68251;DHT22;55066;51.560;4.642;2023-05-10T12:46:11;19.17;85.74
68251;DHT22;55066;51.560;4.642;2023-05-10T12:48:37;18.63;86.29
68251;DHT22;55066;51.560;4.642;2023-05-10T12:51:04;18.66;86.76
68251;DHT22;55066;51.560;4.642;2023-05-10T12:53:30;18.27;86.25
68251;DHT22;55066;51.560;4.642;2023-05-10T12:55:56;18.32;86.19
68251;DHT22;55066;51.560;4.642;2023-05-10T12:58:24;18.51;86.34
68251;DHT22;55066;51.560;4.642;2023-05-10T13:00:52;18.86;86.65
68251;DHT22;55066;51.560;4.642;2023-05-10T13:03:19;19.15;85.94
68251;DHT22;55066;51.560;4.642;2023-05-10T13:05:44;18.77;85.94
68251;DHT22;55066;51.560;4.642;2023-05-10T13:08:10;18.85;86.39
68251;DHT22;55066;51.560;4.642;2023-05-10T13:10:35;18.75;86.30
68251;DHT22;55066;51.560;4.642;2023-05-10T13:13:04;18.49;84.55
68251;DHT22;55066;51.560;4.642;2023-05-10T13:15:30;19.18;85.85
68251;DHT22;55066;51.560;4.642;2023-05-10T13:17:57;19.17;85.62
68251;DHT22;55066;51.560;4.642;2023-05-10T13:20:22;18.99;85.64
68251;DHT22;55066;51.560;4.642;2023-05-10T13:22:47;18.86;86.03
68251;DHT22;55066;51.560;4.642;2023-05-10T13:25:14;18.63;85.76
68251;DHT22;55066;51.560;4.642;2023-05-10T13:27:40;18.86;85.45
68251;DHT22;55066;51.560;4.642;2023-05-10T13:30:07;18.72;85.85
68251;DHT22;55066;51.560;4.642;2023-05-10T13:32:33;18.83;86.81
68251;DHT22;55066;51.560;4.642;2023-05-10T13:34:58;18.72;85.38
68251;DHT22;55066;51.560;4.642;2023-05-10T13:37:23;18.90;86.31
68251;DHT22;55066;51.560;4.642;2023-05-10T13:39:49;18.51;86.48
68251;DHT22;55066;51.560;4.642;2023-05-10T13:42:15;18.45;87.79
68251;DHT22;55066;51.560;4.642;2023-05-10T13:44:42;18.92;86.91
68251;DHT22;55066;51.560;4.642;2023-05-10T13:47:08;18.72;85.75
68251;DHT22;55066;51.560;4.642;2023-05-10T13:49:33;18.39;86.36
68251;DHT22;55066;51.560;4.642;2023-05-10T13:52:01;18.31;88.28
68251;DHT22;55066;51.560;4.642;2023-05-10T13:54:32;18.41;87.01
68251;DHT22;55066;51.560;4.642;2023-05-10T13:56:58;18.51;87.92
68251;DHT22;55066;51.560;4.642;2023-05-10T13:59:24;18.11;88.76
68251;DHT22;55066;51.560;4.642;2023-05-10T14:01:49;17.73;88.12
68251;DHT22;55066;51.560;4.642;2023-05-10T14:04:15;17.76;89.84
68251;DHT22;55066;51.560;4.642;2023-05-10T14:06:40;17.57;89.46
68251;DHT22;55066;51.560;4.642;2023-05-10T14:09:05;17.67;90.08
68251;DHT22;55066;51.560;4.642;2023-05-10T14:11:32;17.72;89.20
68251;DHT22;55066;51.560;4.642;2023-05-10T14:13:59;17.48;90.01
68251;DHT22;55066;51.560;4.642;2023-05-10T14:16:26;16.80;92.26
68251;DHT22;55066;51.560;4.642;2023-05-10T14:18:55;16.53;93.36
68251;DHT22;55066;51.560;4.642;2023-05-10T14:21:20;16.59;93.04
68251;DHT22;55066;51.560;4.642;2023-05-10T14:23:46;15.94;96.07
68251;DHT22;55066;51.560;4.642;2023-05-10T14:26:14;15.50;99.03
68251;DHT22;55066;51.560;4.642;2023-05-10T14:28:40;15.22;99.18
68251;DHT22;55066;51.560;4.642;2023-05-10T14:31:07;15.18;99.26
68251;DHT22;55066;51.560;4.642;2023-05-10T14:33:32;15.21;97.89
68251;DHT22;55066;51.560;4.642;2023-05-10T14:35:57;15.06;99.99
68251;DHT22;55066;51.560;4.642;2023-05-10T14:38:23;15.11;98.13
68251;DHT22;55066;51.560;4.642;2023-05-10T14:40:49;14.99;99.99
68251;DHT22;55066;51.560;4.642;2023-05-10T14:43:21;14.89;99.99
68251;DHT22;55066;51.560;4.642;2023-05-10T14:45:46;14.64;99.99
68251;DHT22;55066;51.560;4.642;2023-05-10T14:48:13;14.80;99.51
68251;DHT22;55066;51.560;4.642;2023-05-10T14:50:43;14.83;99.85
68251;DHT22;55066;51.560;4.642;2023-05-10T14:53:09;14.50;99.99
68251;DHT22;55066;51.560;4.642;2023-05-10T14:55:35;14.33;99.99
68251;DHT22;55066;51.560;4.642;2023-05-10T14:58:03;14.29;99.99
68251;DHT22;55066;51.560;4.642;2023-05-10T15:00:30;14.50;99.99
68251;DHT22;55066;51.560;4.642;2023-05-10T15:02:56;14.50;99.99
68251;DHT22;55066;51.560;4.642;2023-05-10T15:05:21;14.49;99.60
68251;DHT22;55066;51.560;4.642;2023-05-10T15:07:47;14.84;99.99
68251;DHT22;55066;51.560;4.642;2023-05-10T15:10:12;15.29;95.80
68251;DHT22;55066;51.560;4.642;2023-05-10T15:12:39;15.06;98.15
68251;DHT22;55066;51.560;4.642;2023-05-10T15:15:06;14.89;97.67
68251;DHT22;55066;51.560;4.642;2023-05-10T15:17:34;14.34;99.99
68251;DHT22;55066;51.560;4.642;2023-05-10T15:19:59;14.20;99.99
68251;DHT22;55066;51.560;4.642;2023-05-10T15:22:25;14.19;99.99
68251;DHT22;55066;51.560;4.642;2023-05-10T15:24:50;14.44;99.99
68251;DHT22;55066;51.560;4.642;2023-05-10T15:27:16;14.25;99.99
68251;DHT22;55066;51.560;4.642;2023-05-10T15:29:42;14.22;99.58
68251;DHT22;55066;51.560;4.642;2023-05-10T15:32:09;14.30;98.87
68251;DHT22;55066;51.560;4.642;2023-05-10T15:34:35;14.22;98.90
68251;DHT22;55066;51.560;4.642;2023-05-10T15:37:01;14.29;98.53
68251;DHT22;55066;51.560;4.642;2023-05-10T15:39:27;14.28;98.88
68251;DHT22;55066;51.560;4.642;2023-05-10T15:41:53;14.39;98.32
68251;DHT22;55066;51.560;4.642;2023-05-10T15:44:18;14.50;97.72
68251;DHT22;55066;51.560;4.642;2023-05-10T15:46:45;14.46;99.99
68251;DHT22;55066;51.560;4.642;2023-05-10T15:49:10;14.67;98.06
68251;DHT22;55066;51.560;4.642;2023-05-10T15:51:37;14.57;99.99